createdAt,value
2023-04-13T00:00:11.415Z,64.11
2023-04-13T00:01:11.414Z,63.70
2023-04-13T00:02:10.408Z,65.02
2023-04-13T00:03:09.072Z,65.37
2023-04-13T00:04:06.253Z,65.34
2023-04-13T00:05:03.746Z,67.10
2023-04-13T00:06:02.996Z,67.51
2023-04-13T00:07:03.027Z,68.88
2023-04-13T00:08:04.662Z,69.96
2023-04-13T00:09:01.426Z,69.91
2023-04-13T00:09:58.608Z,70.12
2023-04-13T00:10:55.694Z,70.50
2023-04-13T00:11:52.375Z,69.92
2023-04-13T00:12:50.157Z,70.04
2023-04-13T00:13:47.380Z,70.86
2023-04-13T00:14:44.223Z,71.17
2023-04-13T00:15:43.176Z,71.39
2023-04-13T00:16:40.059Z,71.58
2023-04-13T00:17:38.026Z,72.00
2023-04-13T00:18:34.804Z,72.22
2023-04-13T00:19:34.712Z,72.82
2023-04-13T00:20:31.530Z,73.31
2023-04-13T00:21:28.298Z,71.97
2023-04-13T00:22:27.940Z,70.99
2023-04-13T00:23:24.681Z,72.52
2023-04-13T00:24:22.400Z,74.05
2023-04-13T00:25:19.357Z,73.67
2023-04-13T00:26:16.543Z,75.13
2023-04-13T00:27:13.669Z,77.68
2023-04-13T00:28:10.431Z,77.63
2023-04-13T00:29:07.553Z,76.79
2023-04-13T00:30:05.331Z,77.70
2023-04-13T00:31:02.791Z,77.73
2023-04-13T00:31:59.623Z,76.27
2023-04-13T00:32:56.618Z,77.86
2023-04-13T00:33:53.450Z,78.51
2023-04-13T00:34:50.302Z,78.05
2023-04-13T00:35:47.290Z,79.77
2023-04-13T00:36:44.006Z,80.36
2023-04-13T00:37:43.241Z,80.33
2023-04-13T00:38:42.016Z,79.75
2023-04-13T00:39:41.033Z,80.64
2023-04-13T00:40:38.388Z,82.34
2023-04-13T00:41:35.543Z,82.90
2023-04-13T00:42:32.251Z,83.43
2023-04-13T00:43:28.961Z,85.66
2023-04-13T00:44:25.817Z,84.84
2023-04-13T00:45:22.679Z,83.96
2023-04-13T00:46:21.094Z,82.95
2023-04-13T00:47:26.549Z,81.58
2023-04-13T00:48:23.503Z,81.49
2023-04-13T00:49:22.746Z,83.25
2023-04-13T00:50:21.192Z,84.04
2023-04-13T00:51:18.502Z,85.72
2023-04-13T00:52:16.135Z,85.86
2023-04-13T00:53:13.929Z,85.44
2023-04-13T00:54:16.835Z,85.85
2023-04-13T00:55:14.924Z,83.65
2023-04-13T00:56:13.497Z,84.69
2023-04-13T00:57:11.543Z,85.39
2023-04-13T00:58:09.176Z,86.56
2023-04-13T00:59:07.657Z,85.41
2023-04-13T01:00:09.371Z,84.82
2023-04-13T01:01:06.375Z,83.67
2023-04-13T01:02:05.688Z,85.03
2023-04-13T01:03:02.825Z,84.78
2023-04-13T01:03:59.898Z,82.58
2023-04-13T01:04:57.629Z,81.94
2023-04-13T01:06:01.611Z,83.11
2023-04-13T01:07:12.959Z,83.06
2023-04-13T01:08:22.757Z,83.04
2023-04-13T01:09:31.129Z,83.17
2023-04-13T01:10:43.656Z,84.18
2023-04-13T01:11:45.624Z,82.45
2023-04-13T01:13:05.733Z,83.53
2023-04-13T01:14:26.275Z,82.82
2023-04-13T01:15:23.875Z,83.85
2023-04-13T01:16:31.081Z,83.48
2023-04-13T01:18:52.498Z,85.82
2023-04-13T01:20:13.420Z,86.66
2023-04-13T01:21:14.879Z,90.06
2023-04-13T01:22:14.539Z,88.74
2023-04-13T01:23:27.515Z,89.17
2023-04-13T01:24:53.542Z,90.14
2023-04-13T01:25:59.601Z,88.84
2023-04-13T01:27:22.863Z,90.12
2023-04-13T01:28:22.654Z,91.86
2023-04-13T01:29:19.770Z,90.57
2023-04-13T01:30:23.587Z,91.14
2023-04-13T01:31:21.234Z,89.50
2023-04-13T01:32:18.092Z,91.05
2023-04-13T01:33:16.188Z,91.13
2023-04-13T01:34:13.294Z,93.63
2023-04-13T01:35:10.602Z,95.76
2023-04-13T01:36:11.462Z,97.29
2023-04-13T01:37:10.128Z,96.92
2023-04-13T01:38:08.763Z,95.89
2023-04-13T01:39:05.784Z,96.10
2023-04-13T01:40:11.275Z,96.97
2023-04-13T01:41:08.805Z,96.25
2023-04-13T01:42:06.159Z,97.50
2023-04-13T01:43:03.596Z,97.83
2023-04-13T01:44:00.825Z,96.25
2023-04-13T01:44:57.792Z,94.53
2023-04-13T01:46:08.212Z,95.19
2023-04-13T01:47:16.659Z,97.69
2023-04-13T01:48:39.227Z,99.14
2023-04-13T01:49:37.480Z,98.15
2023-04-13T01:50:40.538Z,97.86
2023-04-13T01:51:38.958Z,97.59
2023-04-13T01:52:41.117Z,98.06
2023-04-13T01:53:42.643Z,96.60
2023-04-13T01:54:41.974Z,98.65
2023-04-13T01:55:41.963Z,100.00
2023-04-13T01:56:40.465Z,100.00
2023-04-13T01:57:41.192Z,100.00
2023-04-13T01:58:38.136Z,100.00
2023-04-13T01:59:34.961Z,100.00
2023-04-13T02:00:41.090Z,100.00
2023-04-13T02:01:38.911Z,100.00
2023-04-13T02:02:35.817Z,100.00
2023-04-13T02:03:33.909Z,100.00
2023-04-13T02:04:30.818Z,100.00
2023-04-13T02:05:27.548Z,100.00
2023-04-13T02:06:24.698Z,100.00
2023-04-13T02:07:21.453Z,100.00
2023-04-13T02:08:18.540Z,99.71
2023-04-13T02:09:15.633Z,100.00
2023-04-13T02:10:12.461Z,100.00
2023-04-13T02:11:12.543Z,100.00
2023-04-13T02:12:09.676Z,100.00
2023-04-13T02:13:07.172Z,100.00
2023-04-13T02:14:04.973Z,100.00
2023-04-13T02:15:01.852Z,100.00
2023-04-13T02:15:59.091Z,100.00
2023-04-13T02:16:55.857Z,100.00
2023-04-13T02:17:53.891Z,100.00
2023-04-13T02:18:51.366Z,100.00
2023-04-13T02:19:48.172Z,100.00
2023-04-13T02:20:44.939Z,100.00
2023-04-13T02:21:42.200Z,100.00
2023-04-13T02:22:39.564Z,99.71
2023-04-13T02:23:37.824Z,100.00
2023-04-13T02:24:34.564Z,100.00
2023-04-13T02:25:31.294Z,100.00
2023-04-13T02:26:28.532Z,100.00
2023-04-13T02:27:25.340Z,100.00
2023-04-13T02:28:22.060Z,100.00
2023-04-13T02:29:18.741Z,100.00
2023-04-13T02:30:17.352Z,100.00
2023-04-13T02:31:19.729Z,100.00
2023-04-13T02:32:16.659Z,100.00
2023-04-13T02:33:13.501Z,100.00
2023-04-13T02:34:11.196Z,100.00
2023-04-13T02:35:10.165Z,100.00
2023-04-13T02:36:07.330Z,100.00
2023-04-13T02:37:04.054Z,100.00
2023-04-13T02:38:00.832Z,100.00
2023-04-13T02:38:57.631Z,100.00
2023-04-13T02:39:54.385Z,100.00
2023-04-13T02:41:03.690Z,100.00
2023-04-13T02:42:02.360Z,100.00
2023-04-13T02:43:00.109Z,100.00
2023-04-13T02:43:57.367Z,100.00
2023-04-13T02:44:54.289Z,100.00
2023-04-13T02:45:51.242Z,100.00
2023-04-13T02:46:48.017Z,100.00
2023-04-13T02:47:45.280Z,100.00
2023-04-13T02:48:42.283Z,98.73
2023-04-13T02:49:39.060Z,99.08
2023-04-13T02:50:35.880Z,100.00
2023-04-13T02:51:32.816Z,100.00
2023-04-13T02:52:29.733Z,100.00
2023-04-13T02:53:27.177Z,100.00
2023-04-13T02:54:24.460Z,100.00
2023-04-13T02:55:21.332Z,100.00
2023-04-13T02:56:18.153Z,100.00
2023-04-13T02:57:15.317Z,100.00
2023-04-13T02:58:12.584Z,100.00
2023-04-13T02:59:09.995Z,100.00
2023-04-13T03:00:10.771Z,100.00
2023-04-13T03:01:07.876Z,100.00
2023-04-13T03:02:04.651Z,100.00
2023-04-13T03:03:03.744Z,100.00
2023-04-13T03:04:01.236Z,100.00
2023-04-13T03:04:59.446Z,100.00
2023-04-13T03:05:56.214Z,100.00
2023-04-13T03:06:54.445Z,100.00
2023-04-13T03:07:51.161Z,100.00
2023-04-13T03:08:47.997Z,100.00
2023-04-13T03:09:48.280Z,100.00
2023-04-13T03:10:45.055Z,100.00
2023-04-13T03:11:42.461Z,100.00
2023-04-13T03:12:39.363Z,100.00
2023-04-13T03:13:36.120Z,100.00
2023-04-13T03:14:33.320Z,100.00
2023-04-13T03:15:30.915Z,100.00
2023-04-13T03:16:28.331Z,100.00
2023-04-13T03:17:25.382Z,100.00
2023-04-13T03:18:23.858Z,100.00
2023-04-13T03:19:20.626Z,100.00
2023-04-13T03:20:20.730Z,100.00
2023-04-13T03:21:17.504Z,100.00
2023-04-13T03:22:14.210Z,100.00
2023-04-13T03:23:11.883Z,100.00
2023-04-13T03:24:08.948Z,100.00
2023-04-13T03:25:07.176Z,100.00
2023-04-13T03:26:05.458Z,100.00
2023-04-13T03:27:02.880Z,100.00
2023-04-13T03:27:59.768Z,100.00
2023-04-13T03:28:56.673Z,100.00
2023-04-13T03:29:53.422Z,100.00
2023-04-13T03:30:50.297Z,100.00
2023-04-13T03:31:47.132Z,100.00
2023-04-13T03:32:44.039Z,100.00
2023-04-13T03:33:41.160Z,100.00
2023-04-13T03:34:43.812Z,100.00
2023-04-13T03:35:40.775Z,100.00
2023-04-13T03:36:37.624Z,100.00
2023-04-13T03:37:40.487Z,100.00
2023-04-13T03:38:37.518Z,100.00
2023-04-13T03:39:34.402Z,100.00
2023-04-13T03:40:31.367Z,100.00
2023-04-13T03:41:28.078Z,100.00
2023-04-13T03:42:24.834Z,100.00
2023-04-13T03:43:21.654Z,100.00
2023-04-13T03:44:18.483Z,100.00
2023-04-13T03:45:15.467Z,100.00
2023-04-13T03:46:13.313Z,100.00
2023-04-13T03:47:10.238Z,100.00
2023-04-13T03:48:07.246Z,100.00
2023-04-13T03:49:09.334Z,100.00
2023-04-13T03:50:06.771Z,100.00
2023-04-13T03:51:03.738Z,100.00
2023-04-13T03:52:00.434Z,100.00
2023-04-13T03:52:57.360Z,100.00
2023-04-13T03:53:55.040Z,100.00
2023-04-13T03:54:52.260Z,100.00
2023-04-13T03:55:49.108Z,100.00
2023-04-13T03:56:46.013Z,100.00
2023-04-13T03:57:42.804Z,100.00
2023-04-13T03:58:39.715Z,100.00
2023-04-13T03:59:36.495Z,100.00
2023-04-13T04:00:33.245Z,100.00
2023-04-13T04:01:30.068Z,100.00
2023-04-13T04:02:27.499Z,100.00
2023-04-13T04:03:25.800Z,100.00
2023-04-13T04:04:22.916Z,100.00
2023-04-13T04:05:20.031Z,100.00
2023-04-13T04:06:16.786Z,100.00
2023-04-13T04:07:13.567Z,100.00
2023-04-13T04:08:10.550Z,100.00
2023-04-13T04:09:07.457Z,100.00
2023-04-13T04:10:04.780Z,100.00
2023-04-13T04:11:01.614Z,100.00
2023-04-13T04:11:58.339Z,100.00
2023-04-13T04:12:55.063Z,100.00
2023-04-13T04:13:51.766Z,100.00
2023-04-13T04:14:48.541Z,100.00
2023-04-13T04:15:45.326Z,100.00
2023-04-13T04:16:42.256Z,100.00
2023-04-13T04:17:40.047Z,100.00
2023-04-13T04:18:37.805Z,100.00
2023-04-13T04:19:34.514Z,100.00
2023-04-13T04:20:31.193Z,100.00
2023-04-13T04:21:34.320Z,100.00
2023-04-13T04:22:34.792Z,100.00
2023-04-13T04:23:34.642Z,100.00
2023-04-13T04:24:31.418Z,100.00
2023-04-13T04:25:28.210Z,100.00
2023-04-13T04:26:25.911Z,100.00
2023-04-13T04:27:26.381Z,100.00
2023-04-13T04:28:23.166Z,100.00
2023-04-13T04:29:22.801Z,100.00
2023-04-13T04:30:22.014Z,100.00
2023-04-13T04:31:18.835Z,100.00
2023-04-13T04:32:15.745Z,100.00
2023-04-13T04:33:14.437Z,100.00
2023-04-13T04:34:11.697Z,100.00
2023-04-13T04:35:12.134Z,100.00
2023-04-13T04:36:16.287Z,100.00
2023-04-13T04:37:20.313Z,100.00
2023-04-13T04:38:23.657Z,100.00
2023-04-13T04:39:22.680Z,100.00
2023-04-13T04:40:19.680Z,100.00
2023-04-13T04:41:21.027Z,100.00
2023-04-13T04:42:19.007Z,100.00
2023-04-13T04:43:15.996Z,100.00
2023-04-13T04:44:12.852Z,100.00
2023-04-13T04:45:15.103Z,100.00
2023-04-13T04:46:16.163Z,100.00
2023-04-13T04:47:13.426Z,100.00
2023-04-13T04:48:11.954Z,100.00
2023-04-13T04:49:08.704Z,100.00
2023-04-13T04:50:05.879Z,100.00
2023-04-13T04:51:02.679Z,100.00
2023-04-13T04:51:59.699Z,100.00
2023-04-13T04:52:56.566Z,100.00
2023-04-13T04:53:53.333Z,100.00
2023-04-13T04:54:50.798Z,100.00
2023-04-13T04:55:47.569Z,100.00
2023-04-13T04:56:48.100Z,100.00
2023-04-13T04:57:46.012Z,100.00
2023-04-13T04:58:42.784Z,100.00
2023-04-13T04:59:40.880Z,100.00
2023-04-13T05:00:38.268Z,100.00
2023-04-13T05:01:35.242Z,98.48
2023-04-13T05:02:32.078Z,95.68
2023-04-13T05:03:29.340Z,91.42
2023-04-13T05:04:26.176Z,89.84
2023-04-13T05:05:23.365Z,88.87
2023-04-13T05:06:20.472Z,90.60
2023-04-13T05:07:19.031Z,90.10
2023-04-13T05:08:15.854Z,88.00
2023-04-13T05:09:12.618Z,89.64
2023-04-13T05:10:10.181Z,91.87
2023-04-13T05:11:07.556Z,90.23
2023-04-13T05:12:04.945Z,87.14
2023-04-13T05:13:01.924Z,85.37
2023-04-13T05:13:59.849Z,85.62
2023-04-13T05:14:56.831Z,86.43
2023-04-13T05:15:53.541Z,86.30
2023-04-13T05:16:51.565Z,86.49
2023-04-13T05:17:50.947Z,84.74
2023-04-13T05:18:49.377Z,85.98
2023-04-13T05:19:47.254Z,87.33
2023-04-13T05:20:44.049Z,85.40
2023-04-13T05:21:40.799Z,82.33
2023-04-13T05:22:37.509Z,82.42
2023-04-13T05:23:34.276Z,82.88
2023-04-13T05:24:31.224Z,82.92
2023-04-13T05:25:27.979Z,81.99
2023-04-13T05:26:25.496Z,80.93
2023-04-13T05:27:22.429Z,83.32
2023-04-13T05:28:19.444Z,82.04
2023-04-13T05:29:16.358Z,80.22
2023-04-13T05:30:13.675Z,80.82
2023-04-13T05:31:11.251Z,79.03
2023-04-13T05:32:08.146Z,80.66
2023-04-13T05:33:07.617Z,81.65
2023-04-13T05:34:04.469Z,81.25
2023-04-13T05:35:01.297Z,81.88
2023-04-13T05:35:58.260Z,79.79
2023-04-13T05:36:55.729Z,81.35
2023-04-13T05:37:53.286Z,79.75
2023-04-13T05:38:51.638Z,79.76
2023-04-13T05:39:48.397Z,81.01
2023-04-13T05:40:45.213Z,79.77
2023-04-13T05:41:41.986Z,79.23
2023-04-13T05:42:38.735Z,79.77
2023-04-13T05:43:35.717Z,80.38
2023-04-13T05:44:32.593Z,78.05
2023-04-13T05:45:29.981Z,75.55
2023-04-13T05:46:27.903Z,73.35
2023-04-13T05:47:24.728Z,72.08
2023-04-13T05:48:21.619Z,73.27
2023-04-13T05:49:18.455Z,73.91
2023-04-13T05:50:15.243Z,74.54
2023-04-13T05:51:15.660Z,74.41
2023-04-13T05:52:12.797Z,73.55
2023-04-13T05:53:09.758Z,73.72
2023-04-13T05:54:09.859Z,73.10
2023-04-13T05:55:06.913Z,73.77
2023-04-13T05:56:03.781Z,74.44
2023-04-13T05:57:00.610Z,72.23
2023-04-13T05:57:57.383Z,70.50
2023-04-13T05:58:54.305Z,68.35
2023-04-13T05:59:53.242Z,68.37
2023-04-13T06:00:50.028Z,68.44
2023-04-13T06:01:46.893Z,69.25
2023-04-13T06:02:43.900Z,70.27
2023-04-13T06:03:41.085Z,70.64
2023-04-13T06:04:38.383Z,69.92
2023-04-13T06:05:36.727Z,69.12
2023-04-13T06:06:36.002Z,68.04
2023-04-13T06:07:34.179Z,67.39
2023-04-13T06:08:32.677Z,66.33
2023-04-13T06:09:29.613Z,66.62
2023-04-13T06:10:26.701Z,65.92
2023-04-13T06:11:25.168Z,65.90
2023-04-13T06:12:21.925Z,64.77
2023-04-13T06:13:18.692Z,64.66
2023-04-13T06:14:16.631Z,65.07
2023-04-13T06:15:13.361Z,64.23
2023-04-13T06:16:10.385Z,63.58
2023-04-13T06:17:07.308Z,63.82
2023-04-13T06:18:04.329Z,63.87
2023-04-13T06:19:03.973Z,62.97
2023-04-13T06:20:00.943Z,62.86
2023-04-13T06:20:58.650Z,62.50
2023-04-13T06:21:56.204Z,63.32
2023-04-13T06:22:53.043Z,63.41
2023-04-13T06:23:51.518Z,63.58
2023-04-13T06:24:50.425Z,62.64
2023-04-13T06:25:47.479Z,63.07
2023-04-13T06:26:44.449Z,62.52
2023-04-13T06:27:43.453Z,62.53
2023-04-13T06:28:40.282Z,61.93
2023-04-13T06:29:37.692Z,62.63
2023-04-13T06:30:34.861Z,61.13
2023-04-13T06:31:31.784Z,61.10
2023-04-13T06:32:28.584Z,60.32
2023-04-13T06:33:26.343Z,60.83
2023-04-13T06:34:23.099Z,61.15
2023-04-13T06:35:20.731Z,60.00
2023-04-13T06:36:17.915Z,60.95
2023-04-13T06:37:14.769Z,60.71
2023-04-13T06:38:12.230Z,59.46
2023-04-13T06:39:09.510Z,60.19
2023-04-13T06:40:14.815Z,60.98
2023-04-13T06:41:11.740Z,60.40
2023-04-13T06:42:08.467Z,60.03
2023-04-13T06:43:06.267Z,58.85
2023-04-13T06:44:06.188Z,59.15
2023-04-13T06:45:03.186Z,59.39
2023-04-13T06:46:02.120Z,57.23
2023-04-13T06:46:59.057Z,57.67
2023-04-13T06:47:55.970Z,57.63
2023-04-13T06:48:52.912Z,56.16
2023-04-13T06:49:49.762Z,55.36
2023-04-13T06:50:46.472Z,53.94
2023-04-13T06:51:43.521Z,52.69
2023-04-13T06:52:43.930Z,53.95
2023-04-13T06:53:41.422Z,53.25
2023-04-13T06:54:38.300Z,54.25
2023-04-13T06:55:35.019Z,54.03
2023-04-13T06:56:31.823Z,52.73
2023-04-13T06:57:29.956Z,52.95
2023-04-13T06:58:27.226Z,53.30
2023-04-13T06:59:24.042Z,53.80
2023-04-13T07:00:29.690Z,52.23
2023-04-13T07:01:28.232Z,52.42
2023-04-13T07:02:26.265Z,52.51
2023-04-13T07:03:23.304Z,51.63
2023-04-13T07:04:28.604Z,50.01
2023-04-13T07:05:31.967Z,49.30
2023-04-13T07:06:29.151Z,48.50
2023-04-13T07:07:25.991Z,50.40
2023-04-13T07:08:22.946Z,50.35
2023-04-13T07:09:19.813Z,50.57
2023-04-13T07:10:16.768Z,50.46
2023-04-13T07:11:14.438Z,50.86
2023-04-13T07:12:11.875Z,51.02
2023-04-13T07:13:08.679Z,51.74
2023-04-13T07:14:05.493Z,51.57
2023-04-13T07:15:02.234Z,52.16
2023-04-13T07:15:59.075Z,51.28
2023-04-13T07:16:55.903Z,52.84
2023-04-13T07:17:52.746Z,52.22
2023-04-13T07:18:49.719Z,51.56
2023-04-13T07:19:47.815Z,51.33
2023-04-13T07:20:44.706Z,50.58
2023-04-13T07:21:41.514Z,51.00
2023-04-13T07:22:38.425Z,50.75
2023-04-13T07:23:35.222Z,50.38
2023-04-13T07:24:34.584Z,50.78
2023-04-13T07:25:33.784Z,50.53
2023-04-13T07:26:30.724Z,50.13
2023-04-13T07:27:28.034Z,50.57
2023-04-13T07:28:25.665Z,49.20
2023-04-13T07:29:22.635Z,48.95
2023-04-13T07:30:19.464Z,49.81
2023-04-13T07:31:16.712Z,49.72
2023-04-13T07:32:13.518Z,49.61
2023-04-13T07:33:11.137Z,48.37
2023-04-13T07:34:07.885Z,48.02
2023-04-13T07:35:05.246Z,48.27
2023-04-13T07:36:02.200Z,47.22
2023-04-13T07:37:01.376Z,46.87
2023-04-13T07:37:58.289Z,47.56
2023-04-13T07:38:55.366Z,46.58
2023-04-13T07:39:52.242Z,47.56
2023-04-13T07:40:49.142Z,47.64
2023-04-13T07:41:49.155Z,47.28
2023-04-13T07:42:50.220Z,47.19
2023-04-13T07:43:47.264Z,46.95
2023-04-13T07:44:47.032Z,46.54
2023-04-13T07:45:44.112Z,45.96
2023-04-13T07:46:41.651Z,46.85
2023-04-13T07:47:38.615Z,46.71
2023-04-13T07:48:36.155Z,47.11
2023-04-13T07:49:40.800Z,46.11
2023-04-13T07:50:44.326Z,45.17
2023-04-13T07:51:41.794Z,45.17
2023-04-13T07:52:38.505Z,45.35
2023-04-13T07:53:35.373Z,45.41
2023-04-13T07:54:36.068Z,46.24
2023-04-13T07:55:32.877Z,44.85
2023-04-13T07:56:31.212Z,45.71
2023-04-13T07:57:28.563Z,45.77
2023-04-13T07:58:25.651Z,46.35
2023-04-13T07:59:23.528Z,45.93
2023-04-13T08:00:23.038Z,46.41
2023-04-13T08:01:21.536Z,45.64
2023-04-13T08:02:18.396Z,45.74
2023-04-13T08:03:16.045Z,45.02
2023-04-13T08:04:13.209Z,45.82
2023-04-13T08:05:10.827Z,45.40
2023-04-13T08:06:08.626Z,45.25
2023-04-13T08:07:06.234Z,45.07
2023-04-13T08:08:03.579Z,45.73
2023-04-13T08:09:03.580Z,44.96
2023-04-13T08:10:07.713Z,44.16
2023-04-13T08:11:04.855Z,44.08
2023-04-13T08:12:02.637Z,43.22
2023-04-13T08:13:02.522Z,44.44
2023-04-13T08:14:02.391Z,44.51
2023-04-13T08:14:59.100Z,44.41
2023-04-13T08:16:00.271Z,44.99
2023-04-13T08:17:01.414Z,44.17
2023-04-13T08:17:59.804Z,44.31
2023-04-13T08:18:57.236Z,44.27
2023-04-13T08:19:59.768Z,44.09
2023-04-13T08:21:00.172Z,44.56
2023-04-13T08:21:57.835Z,43.82
2023-04-13T08:22:54.832Z,44.00
2023-04-13T08:23:51.540Z,44.37
2023-04-13T08:24:51.198Z,44.25
2023-04-13T08:25:51.214Z,44.54
2023-04-13T08:26:52.349Z,43.91
2023-04-13T08:27:49.129Z,43.63
2023-04-13T08:28:47.811Z,44.65
2023-04-13T08:29:44.538Z,44.21
2023-04-13T08:30:42.520Z,44.34
2023-04-13T08:31:40.779Z,44.17
2023-04-13T08:32:37.818Z,44.47
2023-04-13T08:33:34.642Z,44.02
2023-04-13T08:34:31.686Z,43.75
2023-04-13T08:35:28.839Z,43.88
2023-04-13T08:36:27.998Z,44.19
2023-04-13T08:37:24.835Z,43.88
2023-04-13T08:38:21.841Z,43.57
2023-04-13T08:39:18.719Z,43.62
2023-04-13T08:40:18.556Z,43.24
2023-04-13T08:41:17.583Z,43.45
2023-04-13T08:42:16.429Z,43.61
2023-04-13T08:43:13.480Z,43.93
2023-04-13T08:44:13.520Z,44.01
2023-04-13T08:45:10.907Z,43.42
2023-04-13T08:46:07.934Z,43.83
2023-04-13T08:47:05.049Z,44.30
2023-04-13T08:48:02.708Z,43.92
2023-04-13T08:49:02.058Z,44.30
2023-04-13T08:50:01.124Z,44.73
2023-04-13T08:51:01.473Z,44.73
2023-04-13T08:52:00.102Z,44.56
2023-04-13T08:52:56.899Z,43.75
2023-04-13T08:53:53.867Z,43.86
2023-04-13T08:54:51.186Z,44.32
2023-04-13T08:55:52.641Z,43.73
2023-04-13T08:56:50.297Z,43.76
2023-04-13T08:57:53.249Z,43.52
2023-04-13T08:58:57.108Z,43.95
2023-04-13T08:59:56.626Z,43.57
2023-04-13T09:00:54.305Z,43.51
2023-04-13T09:01:52.621Z,43.89
2023-04-13T09:03:04.777Z,43.55
2023-04-13T09:04:11.324Z,44.41
2023-04-13T09:05:16.338Z,44.11
2023-04-13T09:06:18.754Z,44.04
2023-04-13T09:07:22.499Z,43.91
2023-04-13T09:08:23.535Z,44.04
2023-04-13T09:09:21.358Z,43.59
2023-04-13T09:10:21.814Z,43.08
2023-04-13T09:11:18.598Z,43.17
2023-04-13T09:12:15.427Z,43.41
2023-04-13T09:13:19.836Z,43.88
2023-04-13T09:14:21.474Z,43.80
2023-04-13T09:15:18.700Z,43.03
2023-04-13T09:16:16.369Z,43.49
2023-04-13T09:17:32.560Z,43.30
2023-04-13T09:18:29.445Z,43.46
2023-04-13T09:19:33.967Z,43.49
2023-04-13T09:20:30.689Z,43.96
2023-04-13T09:21:42.303Z,43.84
2023-04-13T09:22:39.228Z,43.75
2023-04-13T09:23:36.109Z,43.35
2023-04-13T09:24:41.411Z,43.44
2023-04-13T09:25:38.681Z,42.92
2023-04-13T09:26:49.125Z,42.84
2023-04-13T09:27:45.864Z,42.72
2023-04-13T09:28:49.971Z,42.42
2023-04-13T09:29:52.123Z,42.72
2023-04-13T09:30:48.999Z,42.05
2023-04-13T09:31:47.568Z,42.83
2023-04-13T09:32:44.483Z,42.90
2023-04-13T09:33:52.745Z,42.69
2023-04-13T09:35:06.357Z,42.47
2023-04-13T09:36:10.811Z,42.15
2023-04-13T09:37:14.172Z,42.21
2023-04-13T09:38:15.496Z,41.96
2023-04-13T09:39:14.238Z,41.97
2023-04-13T09:40:13.357Z,41.85
2023-04-13T09:41:10.804Z,41.88
2023-04-13T09:42:12.044Z,41.38
2023-04-13T09:43:09.724Z,42.41
2023-04-13T09:44:18.836Z,42.33
2023-04-13T09:45:15.646Z,42.72
2023-04-13T09:46:14.238Z,43.13
2023-04-13T09:47:12.978Z,42.76
2023-04-13T09:48:21.383Z,42.46
2023-04-13T09:50:28.286Z,42.30
2023-04-13T09:51:26.068Z,43.38
2023-04-13T09:52:24.278Z,42.72
2023-04-13T09:53:20.999Z,42.69
2023-04-13T09:54:21.988Z,42.91
2023-04-13T09:55:21.611Z,42.35
2023-04-13T09:56:18.550Z,42.17
2023-04-13T09:57:27.217Z,41.93
2023-04-13T09:58:25.573Z,42.07
2023-04-13T09:59:23.527Z,41.85
2023-04-13T10:00:21.658Z,41.42
2023-04-13T10:01:18.995Z,41.60
2023-04-13T10:02:19.824Z,41.75
2023-04-13T10:03:19.083Z,41.32
2023-04-13T10:04:16.417Z,41.35
2023-04-13T10:05:14.002Z,41.45
2023-04-13T10:06:11.016Z,40.90
2023-04-13T10:07:07.891Z,40.74
2023-04-13T10:08:06.317Z,40.95
2023-04-13T10:09:03.238Z,41.15
2023-04-13T10:10:03.756Z,41.48
2023-04-13T10:11:02.172Z,41.02
2023-04-13T10:12:00.084Z,41.08
2023-04-13T10:13:01.763Z,41.47
2023-04-13T10:14:02.841Z,41.62
2023-04-13T10:15:33.127Z,41.82
2023-04-13T10:16:58.855Z,41.58
2023-04-13T10:18:14.244Z,41.57
2023-04-13T10:19:21.600Z,41.23
2023-04-13T10:20:19.267Z,40.93
2023-04-13T10:21:16.946Z,40.81
2023-04-13T10:22:16.131Z,41.29
2023-04-13T10:23:13.645Z,40.99
2023-04-13T10:24:12.887Z,41.05
2023-04-13T10:25:29.089Z,40.30
2023-04-13T10:26:36.697Z,40.81
2023-04-13T10:27:36.511Z,40.54
2023-04-13T10:28:43.930Z,40.43
2023-04-13T10:29:40.899Z,41.10
2023-04-13T10:30:49.569Z,40.87
2023-04-13T10:31:48.875Z,41.11
2023-04-13T10:32:45.999Z,40.50
2023-04-13T10:33:50.704Z,39.98
2023-04-13T10:34:47.587Z,39.75
2023-04-13T10:35:59.023Z,40.56
2023-04-13T10:36:58.595Z,40.54
2023-04-13T10:37:58.582Z,40.74
2023-04-13T10:38:55.604Z,40.62
2023-04-13T10:40:06.847Z,40.53
2023-04-13T10:41:03.871Z,40.56
2023-04-13T10:42:02.811Z,41.39
2023-04-13T10:42:59.664Z,40.72
2023-04-13T10:44:08.034Z,40.48
2023-04-13T10:45:05.428Z,40.74
2023-04-13T10:46:09.305Z,40.66
2023-04-13T10:47:08.399Z,40.67
2023-04-13T10:48:06.175Z,40.33
2023-04-13T10:49:04.706Z,39.85
2023-04-13T10:50:01.486Z,39.54
2023-04-13T10:51:01.629Z,39.59
2023-04-13T10:51:58.395Z,40.48
2023-04-13T10:53:02.014Z,40.48
2023-04-13T10:54:05.645Z,41.23
2023-04-13T10:55:05.216Z,41.31
2023-04-13T10:56:02.470Z,41.56
2023-04-13T10:57:02.567Z,40.86
2023-04-13T10:58:00.846Z,41.22
2023-04-13T10:58:57.871Z,40.97
2023-04-13T11:00:04.408Z,40.72
2023-04-13T11:01:02.745Z,40.78
2023-04-13T11:02:00.823Z,41.08
2023-04-13T11:02:59.237Z,40.73
2023-04-13T11:04:04.446Z,39.96
2023-04-13T11:05:04.160Z,39.96
2023-04-13T11:06:01.099Z,39.39
2023-04-13T11:06:58.074Z,38.88
2023-04-13T11:07:55.623Z,38.07
2023-04-13T11:09:01.654Z,37.76
2023-04-13T11:10:03.299Z,37.92
2023-04-13T11:11:00.788Z,38.50
2023-04-13T11:11:57.658Z,38.65
2023-04-13T11:12:58.939Z,38.61
2023-04-13T11:13:55.812Z,38.51
2023-04-13T11:14:52.543Z,38.80
2023-04-13T11:15:49.860Z,38.10
2023-04-13T11:16:46.767Z,38.58
2023-04-13T11:17:46.783Z,38.70
2023-04-13T11:18:43.601Z,38.54
2023-04-13T11:19:52.362Z,39.14
2023-04-13T11:20:49.315Z,38.88
2023-04-13T11:21:54.118Z,38.67
2023-04-13T11:22:50.887Z,38.15
2023-04-13T11:23:53.983Z,38.66
2023-04-13T11:24:51.920Z,38.26
2023-04-13T11:25:58.368Z,36.90
2023-04-13T11:26:55.512Z,37.81
2023-04-13T11:28:00.211Z,37.12
2023-04-13T11:28:58.140Z,37.44
2023-04-13T11:30:06.521Z,36.97
2023-04-13T11:31:03.367Z,37.13
2023-04-13T11:32:00.111Z,37.73
2023-04-13T11:33:02.850Z,37.21
2023-04-13T11:33:59.889Z,36.88
2023-04-13T11:35:10.977Z,36.80
2023-04-13T11:36:09.682Z,36.93
2023-04-13T11:37:07.446Z,36.89
2023-04-13T11:38:04.278Z,37.09
2023-04-13T11:39:05.542Z,37.77
2023-04-13T11:40:10.304Z,39.03
2023-04-13T11:41:16.607Z,37.94
2023-04-13T11:42:14.304Z,38.61
2023-04-13T11:43:11.506Z,38.51
2023-04-13T11:44:08.337Z,36.89
2023-04-13T11:45:07.811Z,36.89
2023-04-13T11:46:06.030Z,36.65
2023-04-13T11:47:04.222Z,37.83
2023-04-13T11:48:06.145Z,37.43
2023-04-13T11:49:04.590Z,36.94
2023-04-13T11:50:02.779Z,37.29
2023-04-13T11:50:59.973Z,36.82
2023-04-13T11:51:57.258Z,37.44
2023-04-13T11:52:58.514Z,36.22
2023-04-13T11:53:56.230Z,36.75
2023-04-13T11:54:54.529Z,36.71
2023-04-13T11:55:53.682Z,36.88
2023-04-13T11:56:51.066Z,35.98
2023-04-13T11:57:53.050Z,38.23
2023-04-13T11:58:51.578Z,36.48
2023-04-13T11:59:48.920Z,36.31
2023-04-13T12:00:48.956Z,36.22
2023-04-13T12:01:55.206Z,36.32
2023-04-13T12:03:02.834Z,35.85
2023-04-13T12:04:14.584Z,35.98
2023-04-13T12:05:27.763Z,36.09
2023-04-13T12:06:25.331Z,37.09
2023-04-13T12:07:23.398Z,36.22
2023-04-13T12:08:25.928Z,36.94
2023-04-13T12:09:36.970Z,35.94
2023-04-13T12:10:46.934Z,36.12
2023-04-13T12:12:20.690Z,35.90
2023-04-13T12:14:51.996Z,35.91
2023-04-13T12:16:06.074Z,35.34
2023-04-13T12:17:18.303Z,35.65
2023-04-13T12:18:30.534Z,35.16
2023-04-13T12:19:32.945Z,34.55
2023-04-13T12:20:41.281Z,35.47
2023-04-13T12:21:42.404Z,36.17
2023-04-13T12:22:55.054Z,37.22
2023-04-13T12:23:59.956Z,36.99
2023-04-13T12:25:02.098Z,37.42
2023-04-13T12:26:25.500Z,36.81
2023-04-13T12:27:23.818Z,35.54
2023-04-13T12:28:21.643Z,35.17
2023-04-13T12:29:24.677Z,34.63
2023-04-13T12:30:22.979Z,34.83
2023-04-13T12:31:24.231Z,36.65
2023-04-13T12:32:27.821Z,36.93
2023-04-13T12:33:24.626Z,35.96
2023-04-13T12:34:23.029Z,35.27
2023-04-13T12:35:21.982Z,35.39
2023-04-13T12:36:18.824Z,35.79
2023-04-13T12:37:17.199Z,35.34
2023-04-13T12:38:13.991Z,34.43
2023-04-13T12:39:13.056Z,34.56
2023-04-13T12:40:15.707Z,34.64
2023-04-13T12:41:14.491Z,35.09